Weather

Weather Information Services

Current METAR and TAF for Sabadell Airport (LELL).

LELL 042100Z AUTO 23005KT 200V280 CAVOK 11/03 Q1013

TAF LELL 041950Z 0415/0515 CNL= TAF LFPV 042000Z 0421/0521 25010G25KT 9999 SCT015 BKN040 TX06/0515Z TN03/0503Z BECMG 0422/0424 OVC008 TEMPO 0503/0506 4000 -DZRA BECMG 0508/0509 BKN014 TEMPO 0509/0514 4500 SHRA BKN015CB BECMG 0514/0515 31010G25KT TEMPO 0515/0518 4500 -SHRA BKN015TCU

Current METAR and TAF for Gerona Airport (LEGE).

LEGE 042100Z 27004KT 9999 FEW050 08/05 Q1013

TAF LEGE 041700Z 0418/0518 VRB03KT 9999 FEW025 TX13/0512Z TN01/0506Z BECMG 0508/0511 31010KT

Current METAR and TAF for Reus Airport (LERS).

LERS 042100Z 24008KT 200V300 CAVOK 13/03 Q1014

TAF LERS 042000Z 0421/0521 25007KT 9999 FEW030 TX13/0513Z TN06/0506Z BECMG 0423/0501 30020KT TEMPO 0500/0521 27022G32KT TEMPO 0503/0514 27030G45KT

Current METAR and TAF for Lleida Airport (LEDA).

LEDA 042100Z AUTO 25009KT 210V300 CAVOK 08/03 Q1015

TAF LEDA 041400Z 0415/0515 27020KT 9999 FEW040 TX11/0514Z TN05/0509Z TEMPO 0415/0417 27025G35KT BECMG 0419/0422 27010KT TEMPO 0506/0515 29020G31KT RA BKN010

Other amazing weather tools for weather forecast

Ventusky Wind and Temperature Maps

https://www.estofex.org/

Here you have some local Meteo Websites you can check, when flying in Catalunya:

RAW and Decoded METARS
https://e6bx.com/weather/LELL/?showDecoded=1&focuspoint=pressurealt